sensor_id;sensor_type;location;lat;lon;timestamp;pressure;altitude;pressure_sealevel;temperature;humidity
30554;BME280;17335;50.720;7.452;2023-09-07T00:01:31;99763.69;;;14.77;100.00
30554;BME280;17335;50.720;7.452;2023-09-07T00:03:58;99768.38;;;14.75;100.00
30554;BME280;17335;50.720;7.452;2023-09-07T00:06:25;99761.63;;;14.71;100.00
30554;BME280;17335;50.720;7.452;2023-09-07T00:08:53;99764.78;;;14.66;100.00
30554;BME280;17335;50.720;7.452;2023-09-07T00:11:19;99764.97;;;14.65;100.00
30554;BME280;17335;50.720;7.452;2023-09-07T00:13:46;99763.13;;;14.65;100.00
30554;BME280;17335;50.720;7.452;2023-09-07T00:16:13;99767.66;;;14.65;100.00
30554;BME280;17335;50.720;7.452;2023-09-07T00:18:39;99764.59;;;14.59;100.00
30554;BME280;17335;50.720;7.452;2023-09-07T00:21:06;99765.63;;;14.58;100.00
30554;BME280;17335;50.720;7.452;2023-09-07T00:23:33;99761.34;;;14.56;100.00
30554;BME280;17335;50.720;7.452;2023-09-07T00:25:59;99756.28;;;14.53;100.00
30554;BME280;17335;50.720;7.452;2023-09-07T00:28:26;99764.53;;;14.51;100.00
30554;BME280;17335;50.720;7.452;2023-09-07T00:30:52;99759.13;;;14.51;100.00
30554;BME280;17335;50.720;7.452;2023-09-07T00:33:20;99756.44;;;14.51;100.00
30554;BME280;17335;50.720;7.452;2023-09-07T00:35:47;99749.97;;;14.44;100.00
30554;BME280;17335;50.720;7.452;2023-09-07T00:38:13;99754.50;;;14.43;100.00
30554;BME280;17335;50.720;7.452;2023-09-07T00:40:43;99754.50;;;14.43;100.00
30554;BME280;17335;50.720;7.452;2023-09-07T00:43:12;99746.63;;;14.50;100.00
30554;BME280;17335;50.720;7.452;2023-09-07T00:45:39;99748.94;;;14.45;100.00
30554;BME280;17335;50.720;7.452;2023-09-07T00:48:07;99751.50;;;14.47;100.00
30554;BME280;17335;50.720;7.452;2023-09-07T00:50:34;99744.22;;;14.47;100.00
30554;BME280;17335;50.720;7.452;2023-09-07T00:53:01;99739.69;;;14.48;100.00
30554;BME280;17335;50.720;7.452;2023-09-07T00:55:29;99736.81;;;14.49;100.00
30554;BME280;17335;50.720;7.452;2023-09-07T00:57:59;99740.91;;;14.53;100.00
30554;BME280;17335;50.720;7.452;2023-09-07T01:00:26;99737.00;;;14.56;100.00
30554;BME280;17335;50.720;7.452;2023-09-07T01:02:53;99737.88;;;14.56;100.00
30554;BME280;17335;50.720;7.452;2023-09-07T01:05:26;99737.94;;;14.65;100.00
30554;BME280;17335;50.720;7.452;2023-09-07T01:07:59;99731.91;;;14.71;100.00
30554;BME280;17335;50.720;7.452;2023-09-07T01:10:31;99734.59;;;14.71;100.00
30554;BME280;17335;50.720;7.452;2023-09-07T01:12:57;99736.81;;;14.75;100.00
30554;BME280;17335;50.720;7.452;2023-09-07T01:15:23;99729.06;;;14.80;100.00
30554;BME280;17335;50.720;7.452;2023-09-07T01:17:50;99728.88;;;14.74;100.00
30554;BME280;17335;50.720;7.452;2023-09-07T01:20:18;99729.72;;;14.74;100.00
30554;BME280;17335;50.720;7.452;2023-09-07T01:22:45;99736.16;;;14.73;100.00
30554;BME280;17335;50.720;7.452;2023-09-07T01:25:13;99724.41;;;14.65;100.00
30554;BME280;17335;50.720;7.452;2023-09-07T01:27:39;99725.81;;;14.69;100.00
30554;BME280;17335;50.720;7.452;2023-09-07T01:30:07;99714.31;;;14.67;100.00
30554;BME280;17335;50.720;7.452;2023-09-07T01:32:34;99722.44;;;14.67;100.00
30554;BME280;17335;50.720;7.452;2023-09-07T01:35:03;99706.53;;;14.63;100.00
30554;BME280;17335;50.720;7.452;2023-09-07T01:37:31;99716.50;;;14.63;100.00
30554;BME280;17335;50.720;7.452;2023-09-07T01:39:57;99717.50;;;14.62;100.00
30554;BME280;17335;50.720;7.452;2023-09-07T01:42:24;99708.88;;;14.58;100.00
30554;BME280;17335;50.720;7.452;2023-09-07T01:44:50;99708.47;;;14.53;100.00
30554;BME280;17335;50.720;7.452;2023-09-07T01:47:17;99709.47;;;14.52;100.00
30554;BME280;17335;50.720;7.452;2023-09-07T01:49:45;99707.81;;;14.51;100.00
30554;BME280;17335;50.720;7.452;2023-09-07T01:52:11;99707.66;;;14.53;100.00
30554;BME280;17335;50.720;7.452;2023-09-07T01:54:38;99710.34;;;14.53;100.00
30554;BME280;17335;50.720;7.452;2023-09-07T01:57:04;99706.63;;;14.54;100.00
30554;BME280;17335;50.720;7.452;2023-09-07T01:59:33;99703.25;;;14.52;100.00
30554;BME280;17335;50.720;7.452;2023-09-07T02:01:59;99704.38;;;14.49;100.00
30554;BME280;17335;50.720;7.452;2023-09-07T02:04:26;99706.75;;;14.44;100.00
30554;BME280;17335;50.720;7.452;2023-09-07T02:06:53;99697.94;;;14.42;100.00
30554;BME280;17335;50.720;7.452;2023-09-07T02:09:20;99705.56;;;14.47;100.00
30554;BME280;17335;50.720;7.452;2023-09-07T02:11:47;99705.88;;;14.43;100.00
30554;BME280;17335;50.720;7.452;2023-09-07T02:14:15;99702.34;;;14.43;100.00
30554;BME280;17335;50.720;7.452;2023-09-07T02:16:42;99704.69;;;14.38;100.00
30554;BME280;17335;50.720;7.452;2023-09-07T02:19:09;99706.88;;;14.34;100.00
30554;BME280;17335;50.720;7.452;2023-09-07T02:21:36;99709.19;;;14.29;100.00
30554;BME280;17335;50.720;7.452;2023-09-07T02:24:03;99714.06;;;14.25;100.00
30554;BME280;17335;50.720;7.452;2023-09-07T02:26:29;99710.13;;;14.20;100.00
30554;BME280;17335;50.720;7.452;2023-09-07T02:28:56;99705.91;;;14.17;100.00
30554;BME280;17335;50.720;7.452;2023-09-07T02:31:22;99702.00;;;14.12;100.00
30554;BME280;17335;50.720;7.452;2023-09-07T02:33:50;99710.25;;;14.10;100.00
30554;BME280;17335;50.720;7.452;2023-09-07T02:36:16;99710.41;;;14.09;100.00
30554;BME280;17335;50.720;7.452;2023-09-07T02:38:43;99697.06;;;14.07;100.00
30554;BME280;17335;50.720;7.452;2023-09-07T02:41:10;99711.72;;;14.04;100.00
30554;BME280;17335;50.720;7.452;2023-09-07T02:43:36;99710.03;;;14.03;100.00
30554;BME280;17335;50.720;7.452;2023-09-07T02:46:03;99715.75;;;14.00;100.00
30554;BME280;17335;50.720;7.452;2023-09-07T02:48:29;99714.91;;;14.00;100.00
30554;BME280;17335;50.720;7.452;2023-09-07T02:50:56;99706.97;;;13.98;100.00
30554;BME280;17335;50.720;7.452;2023-09-07T02:53:25;99711.84;;;13.95;100.00
30554;BME280;17335;50.720;7.452;2023-09-07T02:55:51;99710.78;;;13.87;100.00
30554;BME280;17335;50.720;7.452;2023-09-07T02:58:18;99708.53;;;13.83;100.00
30554;BME280;17335;50.720;7.452;2023-09-07T03:00:45;99708.00;;;13.79;100.00
30554;BME280;17335;50.720;7.452;2023-09-07T03:03:13;99710.03;;;13.77;100.00
30554;BME280;17335;50.720;7.452;2023-09-07T03:05:41;99710.03;;;13.77;100.00
30554;BME280;17335;50.720;7.452;2023-09-07T03:08:08;99710.34;;;13.74;100.00
30554;BME280;17335;50.720;7.452;2023-09-07T03:10:35;99709.28;;;13.67;100.00
30554;BME280;17335;50.720;7.452;2023-09-07T03:13:03;99708.25;;;13.68;100.00
30554;BME280;17335;50.720;7.452;2023-09-07T03:15:30;99711.63;;;13.70;100.00
30554;BME280;17335;50.720;7.452;2023-09-07T03:17:56;99713.66;;;13.68;100.00
30554;BME280;17335;50.720;7.452;2023-09-07T03:20:23;99706.19;;;13.62;100.00
30554;BME280;17335;50.720;7.452;2023-09-07T03:22:50;99710.56;;;13.63;100.00
30554;BME280;17335;50.720;7.452;2023-09-07T03:25:16;99708.41;;;13.66;100.00
30554;BME280;17335;50.720;7.452;2023-09-07T03:27:43;99713.25;;;13.63;100.00
30554;BME280;17335;50.720;7.452;2023-09-07T03:30:10;99719.84;;;13.60;100.00
30554;BME280;17335;50.720;7.452;2023-09-07T03:32:38;99716.97;;;13.62;100.00
30554;BME280;17335;50.720;7.452;2023-09-07T03:35:05;99723.66;;;13.58;100.00
30554;BME280;17335;50.720;7.452;2023-09-07T03:37:36;99725.16;;;13.52;100.00
30554;BME280;17335;50.720;7.452;2023-09-07T03:40:04;99718.53;;;13.46;100.00
30554;BME280;17335;50.720;7.452;2023-09-07T03:42:32;99715.75;;;13.38;100.00
30554;BME280;17335;50.720;7.452;2023-09-07T03:44:59;99712.38;;;13.36;100.00
30554;BME280;17335;50.720;7.452;2023-09-07T03:47:26;99726.97;;;13.34;100.00
30554;BME280;17335;50.720;7.452;2023-09-07T03:49:58;99713.34;;;13.35;100.00
30554;BME280;17335;50.720;7.452;2023-09-07T03:52:25;99720.31;;;13.38;100.00
30554;BME280;17335;50.720;7.452;2023-09-07T03:54:56;99728.94;;;13.41;100.00
30554;BME280;17335;50.720;7.452;2023-09-07T03:57:25;99721.13;;;13.38;100.00
30554;BME280;17335;50.720;7.452;2023-09-07T03:59:51;99726.97;;;13.34;100.00
30554;BME280;17335;50.720;7.452;2023-09-07T04:02:18;99721.75;;;13.32;100.00
30554;BME280;17335;50.720;7.452;2023-09-07T04:04:52;99723.72;;;13.30;100.00
30554;BME280;17335;50.720;7.452;2023-09-07T04:07:20;99720.91;;;13.31;100.00
30554;BME280;17335;50.720;7.452;2023-09-07T04:09:47;99718.31;;;13.30;100.00
30554;BME280;17335;50.720;7.452;2023-09-07T04:12:13;99726.28;;;13.31;100.00
30554;BME280;17335;50.720;7.452;2023-09-07T04:14:40;99725.31;;;13.32;100.00
30554;BME280;17335;50.720;7.452;2023-09-07T04:17:08;99725.16;;;13.34;100.00
30554;BME280;17335;50.720;7.452;2023-09-07T04:19:35;99722.47;;;13.34;100.00
30554;BME280;17335;50.720;7.452;2023-09-07T04:22:01;99726.28;;;13.31;100.00
30554;BME280;17335;50.720;7.452;2023-09-07T04:24:28;99734.22;;;13.33;100.00
30554;BME280;17335;50.720;7.452;2023-09-07T04:26:59;99725.44;;;13.31;100.00
30554;BME280;17335;50.720;7.452;2023-09-07T04:29:27;99727.13;;;13.32;100.00
30554;BME280;17335;50.720;7.452;2023-09-07T04:31:54;99722.72;;;13.31;100.00
30554;BME280;17335;50.720;7.452;2023-09-07T04:34:21;99725.31;;;13.32;100.00
30554;BME280;17335;50.720;7.452;2023-09-07T04:36:48;99726.16;;;13.33;100.00
30554;BME280;17335;50.720;7.452;2023-09-07T04:39:16;99730.69;;;13.32;100.00
30554;BME280;17335;50.720;7.452;2023-09-07T04:41:42;99728.84;;;13.33;100.00
30554;BME280;17335;50.720;7.452;2023-09-07T04:44:09;99727.13;;;13.32;100.00
30554;BME280;17335;50.720;7.452;2023-09-07T04:46:36;99728.28;;;13.29;100.00
30554;BME280;17335;50.720;7.452;2023-09-07T04:49:02;99730.81;;;13.31;100.00
30554;BME280;17335;50.720;7.452;2023-09-07T04:51:29;99724.16;;;13.25;100.00
30554;BME280;17335;50.720;7.452;2023-09-07T04:53:56;99727.03;;;13.24;100.00
30554;BME280;17335;50.720;7.452;2023-09-07T04:56:22;99728.31;;;13.20;100.00
30554;BME280;17335;50.720;7.452;2023-09-07T04:58:51;99731.03;;;13.20;100.00
30554;BME280;17335;50.720;7.452;2023-09-07T05:01:18;99723.78;;;13.20;100.00
30554;BME280;17335;50.720;7.452;2023-09-07T05:03:45;99731.03;;;13.20;100.00
30554;BME280;17335;50.720;7.452;2023-09-07T05:06:11;99732.59;;;13.22;100.00
30554;BME280;17335;50.720;7.452;2023-09-07T05:08:38;99730.56;;;13.24;100.00
30554;BME280;17335;50.720;7.452;2023-09-07T05:11:05;99732.09;;;13.27;100.00
30554;BME280;17335;50.720;7.452;2023-09-07T05:13:31;99730.97;;;13.29;100.00
30554;BME280;17335;50.720;7.452;2023-09-07T05:15:59;99734.22;;;13.33;100.00
30554;BME280;17335;50.720;7.452;2023-09-07T05:18:27;99730.56;;;13.34;100.00
30554;BME280;17335;50.720;7.452;2023-09-07T05:20:54;99739.19;;;13.38;100.00
30554;BME280;17335;50.720;7.452;2023-09-07T05:23:22;99736.34;;;13.39;100.00
30554;BME280;17335;50.720;7.452;2023-09-07T05:25:50;99740.00;;;13.38;100.00
30554;BME280;17335;50.720;7.452;2023-09-07T05:28:20;99745.41;;;13.38;100.00
30554;BME280;17335;50.720;7.452;2023-09-07T05:30:46;99746.09;;;13.40;100.00
30554;BME280;17335;50.720;7.452;2023-09-07T05:33:15;99746.94;;;13.41;100.00
30554;BME280;17335;50.720;7.452;2023-09-07T05:35:42;99747.19;;;13.47;100.00
30554;BME280;17335;50.720;7.452;2023-09-07T05:38:09;99748.88;;;13.48;100.00
30554;BME280;17335;50.720;7.452;2023-09-07T05:40:37;99751.28;;;13.52;100.00
30554;BME280;17335;50.720;7.452;2023-09-07T05:43:05;99748.28;;;13.55;100.00
30554;BME280;17335;50.720;7.452;2023-09-07T05:45:35;99752.50;;;13.57;100.00
30554;BME280;17335;50.720;7.452;2023-09-07T05:48:06;99754.41;;;13.65;100.00
30554;BME280;17335;50.720;7.452;2023-09-07T05:50:34;99760.59;;;13.75;100.00
30554;BME280;17335;50.720;7.452;2023-09-07T05:53:01;99757.97;;;13.83;100.00
30554;BME280;17335;50.720;7.452;2023-09-07T05:55:29;99753.63;;;13.91;100.00
30554;BME280;17335;50.720;7.452;2023-09-07T05:57:58;99750.84;;;14.00;100.00
30554;BME280;17335;50.720;7.452;2023-09-07T06:00:25;99746.34;;;14.09;100.00
30554;BME280;17335;50.720;7.452;2023-09-07T06:02:52;99739.16;;;14.18;100.00
30554;BME280;17335;50.720;7.452;2023-09-07T06:05:19;99742.22;;;14.23;100.00
30554;BME280;17335;50.720;7.452;2023-09-07T06:07:45;99747.31;;;14.26;100.00
30554;BME280;17335;50.720;7.452;2023-09-07T06:10:12;99746.16;;;14.29;100.00
30554;BME280;17335;50.720;7.452;2023-09-07T06:12:40;99743.50;;;14.37;100.00
30554;BME280;17335;50.720;7.452;2023-09-07T06:15:07;99736.63;;;14.42;100.00
30554;BME280;17335;50.720;7.452;2023-09-07T06:17:34;99746.78;;;14.49;100.00
30554;BME280;17335;50.720;7.452;2023-09-07T06:20:01;99747.38;;;14.60;100.00
30554;BME280;17335;50.720;7.452;2023-09-07T06:22:29;99741.72;;;14.72;100.00
30554;BME280;17335;50.720;7.452;2023-09-07T06:24:55;99746.59;;;14.76;100.00
30554;BME280;17335;50.720;7.452;2023-09-07T06:27:22;99747.16;;;14.88;100.00
30554;BME280;17335;50.720;7.452;2023-09-07T06:29:49;99750.06;;;14.95;100.00
30554;BME280;17335;50.720;7.452;2023-09-07T06:32:17;99746.22;;;15.06;100.00
30554;BME280;17335;50.720;7.452;2023-09-07T06:34:45;99752.69;;;15.13;100.00
30554;BME280;17335;50.720;7.452;2023-09-07T06:37:11;99757.78;;;15.24;100.00
30554;BME280;17335;50.720;7.452;2023-09-07T06:39:38;99745.97;;;15.33;100.00
30554;BME280;17335;50.720;7.452;2023-09-07T06:42:05;99751.03;;;15.36;100.00
30554;BME280;17335;50.720;7.452;2023-09-07T06:44:33;99748.34;;;15.45;100.00
30554;BME280;17335;50.720;7.452;2023-09-07T06:47:00;99753.09;;;15.51;100.00
30554;BME280;17335;50.720;7.452;2023-09-07T06:49:27;99756.16;;;15.56;100.00
30554;BME280;17335;50.720;7.452;2023-09-07T06:51:57;99761.22;;;15.67;100.00
30554;BME280;17335;50.720;7.452;2023-09-07T06:54:24;99764.31;;;15.81;100.00
30554;BME280;17335;50.720;7.452;2023-09-07T06:56:50;99751.63;;;15.89;100.00
30554;BME280;17335;50.720;7.452;2023-09-07T06:59:17;99757.88;;;15.98;100.00
30554;BME280;17335;50.720;7.452;2023-09-07T07:01:43;99753.16;;;16.08;100.00
30554;BME280;17335;50.720;7.452;2023-09-07T07:04:10;99751.09;;;16.19;100.00
30554;BME280;17335;50.720;7.452;2023-09-07T07:06:38;99751.09;;;16.27;100.00
30554;BME280;17335;50.720;7.452;2023-09-07T07:09:05;99755.13;;;16.39;100.00
30554;BME280;17335;50.720;7.452;2023-09-07T07:11:32;99745.63;;;16.52;100.00
30554;BME280;17335;50.720;7.452;2023-09-07T07:13:58;99752.34;;;16.72;100.00
30554;BME280;17335;50.720;7.452;2023-09-07T07:16:28;99744.00;;;16.82;100.00
30554;BME280;17335;50.720;7.452;2023-09-07T07:18:58;99744.34;;;16.95;100.00
30554;BME280;17335;50.720;7.452;2023-09-07T07:21:45;99755.81;;;17.05;100.00
30554;BME280;17335;50.720;7.452;2023-09-07T07:24:11;99752.84;;;17.15;100.00
30554;BME280;17335;50.720;7.452;2023-09-07T07:26:38;99753.28;;;17.35;100.00
30554;BME280;17335;50.720;7.452;2023-09-07T07:29:04;99750.56;;;17.58;100.00
30554;BME280;17335;50.720;7.452;2023-09-07T07:31:31;99738.88;;;17.81;100.00
30554;BME280;17335;50.720;7.452;2023-09-07T07:33:58;99739.69;;;17.90;100.00
30554;BME280;17335;50.720;7.452;2023-09-07T07:36:25;99737.00;;;18.05;100.00
30554;BME280;17335;50.720;7.452;2023-09-07T07:38:51;99736.19;;;18.19;100.00
30554;BME280;17335;50.720;7.452;2023-09-07T07:41:18;99727.09;;;18.27;100.00
30554;BME280;17335;50.720;7.452;2023-09-07T07:43:44;99741.84;;;18.47;100.00
30554;BME280;17335;50.720;7.452;2023-09-07T07:46:11;99727.69;;;18.67;100.00
30554;BME280;17335;50.720;7.452;2023-09-07T07:48:38;99731.16;;;18.76;100.00
30554;BME280;17335;50.720;7.452;2023-09-07T07:51:04;99736.25;;;18.93;100.00
30554;BME280;17335;50.720;7.452;2023-09-07T07:53:34;99733.69;;;19.07;100.00
30554;BME280;17335;50.720;7.452;2023-09-07T07:56:01;99742.94;;;19.27;100.00
30554;BME280;17335;50.720;7.452;2023-09-07T07:58:30;99735.50;;;19.36;100.00
30554;BME280;17335;50.720;7.452;2023-09-07T08:00:57;99723.13;;;19.55;100.00
30554;BME280;17335;50.720;7.452;2023-09-07T08:03:26;99730.91;;;19.58;100.00
30554;BME280;17335;50.720;7.452;2023-09-07T08:05:52;99727.41;;;19.64;100.00
30554;BME280;17335;50.720;7.452;2023-09-07T08:08:19;99720.34;;;19.70;100.00
30554;BME280;17335;50.720;7.452;2023-09-07T08:10:45;99722.19;;;19.84;100.00
30554;BME280;17335;50.720;7.452;2023-09-07T08:13:12;99716.03;;;20.04;100.00
30554;BME280;17335;50.720;7.452;2023-09-07T08:15:40;99713.69;;;20.22;100.00
30554;BME280;17335;50.720;7.452;2023-09-07T08:18:06;99718.72;;;20.26;100.00
30554;BME280;17335;50.720;7.452;2023-09-07T08:20:36;99714.41;;;20.38;100.00
30554;BME280;17335;50.720;7.452;2023-09-07T08:23:06;99716.84;;;20.61;100.00
30554;BME280;17335;50.720;7.452;2023-09-07T08:25:35;99719.09;;;20.79;100.00
30554;BME280;17335;50.720;7.452;2023-09-07T08:28:02;99709.38;;;20.70;100.00
30554;BME280;17335;50.720;7.452;2023-09-07T08:30:33;99716.53;;;20.71;100.00
30554;BME280;17335;50.720;7.452;2023-09-07T08:33:00;99714.66;;;20.78;100.00
30554;BME280;17335;50.720;7.452;2023-09-07T08:35:29;99712.41;;;20.88;100.00
30554;BME280;17335;50.720;7.452;2023-09-07T08:37:57;99705.97;;;21.03;100.00
30554;BME280;17335;50.720;7.452;2023-09-07T08:40:26;99704.56;;;21.20;100.00
30554;BME280;17335;50.720;7.452;2023-09-07T08:42:54;99711.72;;;21.34;100.00
30554;BME280;17335;50.720;7.452;2023-09-07T08:45:25;99710.72;;;21.42;100.00
30554;BME280;17335;50.720;7.452;2023-09-07T08:47:52;99713.69;;;21.47;100.00
30554;BME280;17335;50.720;7.452;2023-09-07T08:50:21;99708.00;;;21.56;100.00
30554;BME280;17335;50.720;7.452;2023-09-07T08:52:52;99704.50;;;21.75;100.00
30554;BME280;17335;50.720;7.452;2023-09-07T08:55:20;99697.56;;;21.92;100.00
30554;BME280;17335;50.720;7.452;2023-09-07T08:57:47;99692.50;;;22.09;100.00
30554;BME280;17335;50.720;7.452;2023-09-07T09:00:14;99697.75;;;22.18;100.00
30554;BME280;17335;50.720;7.452;2023-09-07T09:02:46;99685.75;;;22.39;100.00
30554;BME280;17335;50.720;7.452;2023-09-07T09:05:23;99694.16;;;22.51;100.00
30554;BME280;17335;50.720;7.452;2023-09-07T09:08:00;99692.25;;;22.51;100.00
30554;BME280;17335;50.720;7.452;2023-09-07T09:10:27;99688.00;;;22.62;100.00
30554;BME280;17335;50.720;7.452;2023-09-07T09:12:53;99690.06;;;22.73;100.00
30554;BME280;17335;50.720;7.452;2023-09-07T09:15:22;99678.91;;;22.81;100.00
30554;BME280;17335;50.720;7.452;2023-09-07T09:17:49;99673.38;;;22.88;100.00
30554;BME280;17335;50.720;7.452;2023-09-07T09:20:25;99674.56;;;23.12;100.00
30554;BME280;17335;50.720;7.452;2023-09-07T09:22:55;99674.06;;;23.22;100.00
30554;BME280;17335;50.720;7.452;2023-09-07T09:25:22;99671.44;;;23.40;100.00
30554;BME280;17335;50.720;7.452;2023-09-07T09:27:49;99661.44;;;23.53;100.00
30554;BME280;17335;50.720;7.452;2023-09-07T09:30:15;99670.97;;;23.50;100.00
30554;BME280;17335;50.720;7.452;2023-09-07T09:32:43;99667.50;;;23.62;100.00
30554;BME280;17335;50.720;7.452;2023-09-07T09:35:10;99663.59;;;23.76;100.00
30554;BME280;17335;50.720;7.452;2023-09-07T09:37:47;99674.03;;;23.92;100.00
30554;BME280;17335;50.720;7.452;2023-09-07T09:40:15;99657.13;;;23.95;100.00
30554;BME280;17335;50.720;7.452;2023-09-07T09:42:45;99663.84;;;24.00;100.00
30554;BME280;17335;50.720;7.452;2023-09-07T09:45:12;99657.47;;;24.06;100.00
30554;BME280;17335;50.720;7.452;2023-09-07T09:47:41;99654.75;;;24.24;100.00
30554;BME280;17335;50.720;7.452;2023-09-07T09:50:10;99652.63;;;24.26;100.00
30554;BME280;17335;50.720;7.452;2023-09-07T09:52:37;99653.31;;;24.40;100.00
30554;BME280;17335;50.720;7.452;2023-09-07T09:55:06;99646.06;;;24.46;100.00
30554;BME280;17335;50.720;7.452;2023-09-07T09:57:35;99646.09;;;24.64;100.00
30554;BME280;17335;50.720;7.452;2023-09-07T10:00:07;99632.53;;;24.69;100.00
30554;BME280;17335;50.720;7.452;2023-09-07T10:03:08;99631.91;;;24.67;100.00
30554;BME280;17335;50.720;7.452;2023-09-07T10:05:40;99632.75;;;24.68;100.00
30554;BME280;17335;50.720;7.452;2023-09-07T10:08:14;99626.88;;;24.83;100.00
30554;BME280;17335;50.720;7.452;2023-09-07T10:10:43;99629.44;;;24.96;100.00
30554;BME280;17335;50.720;7.452;2023-09-07T10:13:14;99630.78;;;25.05;100.00
30554;BME280;17335;50.720;7.452;2023-09-07T10:15:42;99625.31;;;25.17;100.00
30554;BME280;17335;50.720;7.452;2023-09-07T10:18:10;99617.63;;;25.26;100.00
30554;BME280;17335;50.720;7.452;2023-09-07T10:23:21;99614.81;;;25.44;100.00
30554;BME280;17335;50.720;7.452;2023-09-07T10:25:52;99613.03;;;25.50;100.00
30554;BME280;17335;50.720;7.452;2023-09-07T10:28:24;99621.75;;;25.59;100.00
30554;BME280;17335;50.720;7.452;2023-09-07T10:31:02;99616.16;;;25.66;100.00
30554;BME280;17335;50.720;7.452;2023-09-07T10:33:35;99611.13;;;25.74;100.00
30554;BME280;17335;50.720;7.452;2023-09-07T10:36:03;99607.69;;;25.79;100.00
30554;BME280;17335;50.720;7.452;2023-09-07T10:38:36;99611.72;;;25.88;100.00
30554;BME280;17335;50.720;7.452;2023-09-07T10:41:04;99606.81;;;25.90;100.00
30554;BME280;17335;50.720;7.452;2023-09-07T10:43:34;99596.41;;;25.92;100.00
30554;BME280;17335;50.720;7.452;2023-09-07T10:46:01;99602.66;;;26.11;100.00
30554;BME280;17335;50.720;7.452;2023-09-07T10:48:30;99594.38;;;26.23;100.00
30554;BME280;17335;50.720;7.452;2023-09-07T10:50:57;99589.13;;;26.22;100.00
30554;BME280;17335;50.720;7.452;2023-09-07T10:53:28;99589.63;;;26.30;100.00
30554;BME280;17335;50.720;7.452;2023-09-07T10:55:59;99574.97;;;26.42;100.00
30554;BME280;17335;50.720;7.452;2023-09-07T10:58:29;99581.03;;;26.55;100.00
30554;BME280;17335;50.720;7.452;2023-09-07T11:00:57;99578.88;;;26.69;100.00
30554;BME280;17335;50.720;7.452;2023-09-07T11:03:26;99578.97;;;26.74;100.00
30554;BME280;17335;50.720;7.452;2023-09-07T11:05:59;99567.56;;;26.83;100.00
30554;BME280;17335;50.720;7.452;2023-09-07T11:08:29;99573.03;;;26.94;100.00
30554;BME280;17335;50.720;7.452;2023-09-07T11:10:56;99563.09;;;27.10;100.00
30554;BME280;17335;50.720;7.452;2023-09-07T11:13:26;99562.84;;;27.12;100.00
30554;BME280;17335;50.720;7.452;2023-09-07T11:15:54;99556.09;;;27.20;100.00
30554;BME280;17335;50.720;7.452;2023-09-07T11:18:22;99561.19;;;27.11;100.00
30554;BME280;17335;50.720;7.452;2023-09-07T11:20:51;99549.31;;;27.10;96.48
30554;BME280;17335;50.720;7.452;2023-09-07T11:23:18;99559.22;;;27.23;100.00
30554;BME280;17335;50.720;7.452;2023-09-07T11:25:49;99560.88;;;27.24;100.00
30554;BME280;17335;50.720;7.452;2023-09-07T11:28:19;99549.06;;;27.41;100.00
30554;BME280;17335;50.720;7.452;2023-09-07T11:30:53;99544.19;;;27.31;89.94
30554;BME280;17335;50.720;7.452;2023-09-07T11:33:22;99543.63;;;27.46;96.35
30554;BME280;17335;50.720;7.452;2023-09-07T11:35:49;99547.88;;;27.54;87.27
30554;BME280;17335;50.720;7.452;2023-09-07T11:38:16;99544.69;;;27.62;93.68
30554;BME280;17335;50.720;7.452;2023-09-07T11:40:44;99560.09;;;27.58;84.85
30554;BME280;17335;50.720;7.452;2023-09-07T11:43:12;99549.88;;;27.58;87.33
30554;BME280;17335;50.720;7.452;2023-09-07T11:45:43;99556.13;;;27.71;82.80
30554;BME280;17335;50.720;7.452;2023-09-07T11:48:12;99548.91;;;27.86;91.61
30554;BME280;17335;50.720;7.452;2023-09-07T11:50:39;99551.34;;;28.00;83.32
30554;BME280;17335;50.720;7.452;2023-09-07T11:53:07;99550.66;;;28.10;88.79
30554;BME280;17335;50.720;7.452;2023-09-07T11:55:34;99545.59;;;28.23;98.93
30554;BME280;17335;50.720;7.452;2023-09-07T11:58:03;99536.06;;;28.14;88.82
30554;BME280;17335;50.720;7.452;2023-09-07T12:00:30;99541.34;;;28.16;92.26
30554;BME280;17335;50.720;7.452;2023-09-07T12:02:58;99533.84;;;28.11;75.52
30554;BME280;17335;50.720;7.452;2023-09-07T12:05:25;99537.28;;;28.01;77.58
30554;BME280;17335;50.720;7.452;2023-09-07T12:07:52;99531.34;;;28.10;78.51
30554;BME280;17335;50.720;7.452;2023-09-07T12:10:18;99537.25;;;28.18;85.51
30554;BME280;17335;50.720;7.452;2023-09-07T12:12:45;99538.00;;;28.14;79.84
30554;BME280;17335;50.720;7.452;2023-09-07T12:15:11;99537.00;;;28.42;90.71
30554;BME280;17335;50.720;7.452;2023-09-07T12:17:40;99526.88;;;28.53;75.58
30554;BME280;17335;50.720;7.452;2023-09-07T12:20:07;99531.31;;;28.54;73.54
30554;BME280;17335;50.720;7.452;2023-09-07T12:22:36;99528.22;;;28.50;77.91
30554;BME280;17335;50.720;7.452;2023-09-07T12:25:04;99521.31;;;28.48;82.62
30554;BME280;17335;50.720;7.452;2023-09-07T12:27:43;99521.13;;;28.54;76.62
30554;BME280;17335;50.720;7.452;2023-09-07T12:30:21;99521.75;;;28.39;71.08
30554;BME280;17335;50.720;7.452;2023-09-07T12:32:49;99518.84;;;28.51;84.14
30554;BME280;17335;50.720;7.452;2023-09-07T12:35:16;99522.59;;;28.62;72.19
30554;BME280;17335;50.720;7.452;2023-09-07T12:37:43;99513.38;;;28.78;80.92
30554;BME280;17335;50.720;7.452;2023-09-07T12:40:10;99520.25;;;28.76;66.32
30554;BME280;17335;50.720;7.452;2023-09-07T12:42:43;99522.25;;;28.80;71.46
30554;BME280;17335;50.720;7.452;2023-09-07T12:45:10;99510.97;;;28.87;69.21
30554;BME280;17335;50.720;7.452;2023-09-07T12:47:38;99515.13;;;28.90;73.17
30554;BME280;17335;50.720;7.452;2023-09-07T12:50:06;99512.13;;;28.91;68.67
30554;BME280;17335;50.720;7.452;2023-09-07T12:52:34;99502.22;;;28.95;65.73
30554;BME280;17335;50.720;7.452;2023-09-07T12:55:05;99509.19;;;29.03;72.76
30554;BME280;17335;50.720;7.452;2023-09-07T12:57:32;99506.38;;;28.98;71.73